createdAt,value
2023-03-20T00:01:28.374Z,85.08
2023-03-20T00:03:54.795Z,84.09
2023-03-20T00:06:23.836Z,85.55
2023-03-20T00:08:54.878Z,87.19
2023-03-20T00:11:28.717Z,88.17
2023-03-20T00:13:57.873Z,88.81
2023-03-20T00:16:27.387Z,88.66
2023-03-20T00:18:56.214Z,89.35
2023-03-20T00:21:22.679Z,89.16
2023-03-20T00:23:49.265Z,89.06
2023-03-20T00:26:18.266Z,89.45
2023-03-20T00:28:47.910Z,89.95
2023-03-20T00:31:24.561Z,88.54
2023-03-20T00:33:52.284Z,90.00
2023-03-20T00:36:18.795Z,87.94
2023-03-20T00:38:45.222Z,87.96
2023-03-20T00:41:29.667Z,87.06
2023-03-20T00:44:02.292Z,87.25
2023-03-20T00:46:34.589Z,85.53
2023-03-20T00:49:01.888Z,85.49
2023-03-20T00:51:28.309Z,86.38
2023-03-20T00:53:54.775Z,86.20
2023-03-20T00:56:38.388Z,84.38
2023-03-20T00:59:05.018Z,84.92
2023-03-20T01:01:32.150Z,83.91
2023-03-20T01:03:59.642Z,84.32
2023-03-20T01:06:26.156Z,84.18
2023-03-20T01:08:52.519Z,85.26
2023-03-20T01:11:23.995Z,84.98
2023-03-20T01:13:52.226Z,83.62
2023-03-20T01:16:24.860Z,84.56
2023-03-20T01:18:52.722Z,84.11
2023-03-20T01:21:20.630Z,84.64
2023-03-20T01:23:49.112Z,84.68
2023-03-20T01:26:40.201Z,84.78
2023-03-20T01:29:16.836Z,84.80
2023-03-20T01:31:43.346Z,84.29
2023-03-20T01:34:11.737Z,84.98
2023-03-20T01:36:38.965Z,84.58
2023-03-20T01:39:06.140Z,84.80
2023-03-20T01:41:32.845Z,84.70
2023-03-20T01:44:06.779Z,84.83
2023-03-20T01:46:41.328Z,85.18
2023-03-20T01:49:19.920Z,85.37
2023-03-20T01:51:47.887Z,85.27
2023-03-20T01:54:20.243Z,85.00
2023-03-20T01:56:52.576Z,85.24
2023-03-20T01:59:27.654Z,86.46
2023-03-20T02:01:54.536Z,85.51
2023-03-20T02:04:26.981Z,85.70
2023-03-20T02:06:53.504Z,85.61
2023-03-20T02:09:19.874Z,85.82
2023-03-20T02:11:47.084Z,86.08
2023-03-20T02:14:13.724Z,86.73
2023-03-20T02:16:40.711Z,86.24
2023-03-20T02:19:19.009Z,85.82
2023-03-20T02:21:56.244Z,86.37
2023-03-20T02:24:31.874Z,86.06
2023-03-20T02:27:35.274Z,85.07
2023-03-20T02:30:37.781Z,85.38
2023-03-20T02:33:28.213Z,84.03
2023-03-20T02:36:10.142Z,85.75
2023-03-20T02:38:36.549Z,85.39
2023-03-20T02:41:05.639Z,85.29
2023-03-20T02:44:03.105Z,84.52
2023-03-20T02:46:29.507Z,84.41
2023-03-20T02:49:03.337Z,84.01
2023-03-20T02:51:41.735Z,83.72
2023-03-20T02:54:08.085Z,84.52
2023-03-20T02:56:43.613Z,84.20
2023-03-20T02:59:35.208Z,84.61
2023-03-20T03:02:08.576Z,84.64
2023-03-20T03:04:40.461Z,84.62
2023-03-20T03:07:10.080Z,84.74
2023-03-20T03:09:46.283Z,84.61
2023-03-20T03:12:18.040Z,84.66
2023-03-20T03:14:51.447Z,84.44
2023-03-20T03:17:21.345Z,83.84
2023-03-20T03:19:50.874Z,83.74
2023-03-20T03:22:18.599Z,84.88
2023-03-20T03:24:51.434Z,84.02
2023-03-20T03:27:36.707Z,84.09
2023-03-20T03:30:10.421Z,84.88
2023-03-20T03:32:44.765Z,84.60
2023-03-20T03:35:17.479Z,85.20
2023-03-20T03:37:56.253Z,85.57
2023-03-20T03:40:38.276Z,85.34
2023-03-20T03:43:14.711Z,85.71
2023-03-20T03:45:58.191Z,86.25
2023-03-20T03:48:32.485Z,85.26
2023-03-20T03:51:07.781Z,86.57
2023-03-20T03:53:42.688Z,86.59
2023-03-20T03:56:13.292Z,86.20
2023-03-20T03:58:51.403Z,86.92
2023-03-20T04:01:21.016Z,87.81
2023-03-20T04:03:53.720Z,88.05
2023-03-20T04:06:20.808Z,87.24
2023-03-20T04:08:47.267Z,87.65
2023-03-20T04:11:22.265Z,88.69
2023-03-20T04:13:50.572Z,89.54
2023-03-20T04:16:18.500Z,89.64
2023-03-20T04:18:45.863Z,88.72
2023-03-20T04:21:12.346Z,89.28
2023-03-20T04:23:39.145Z,88.78
2023-03-20T04:26:06.192Z,88.43
2023-03-20T04:28:33.062Z,88.71
2023-03-20T04:31:00.942Z,89.48
2023-03-20T04:33:28.424Z,88.51
2023-03-20T04:35:56.157Z,88.55
2023-03-20T04:38:23.887Z,89.27
2023-03-20T04:40:50.629Z,88.90
2023-03-20T04:43:17.383Z,88.56
2023-03-20T04:45:43.792Z,89.08
2023-03-20T04:48:10.877Z,88.93
2023-03-20T04:50:37.294Z,87.54
2023-03-20T04:53:03.764Z,88.86
2023-03-20T04:55:30.295Z,88.46
2023-03-20T04:57:56.762Z,87.94
2023-03-20T05:00:23.245Z,88.24
2023-03-20T05:02:49.676Z,89.28
2023-03-20T05:05:16.251Z,88.02
2023-03-20T05:07:42.804Z,87.49
2023-03-20T05:10:09.741Z,88.17
2023-03-20T05:12:36.285Z,89.77
2023-03-20T05:15:02.696Z,89.60
2023-03-20T05:17:29.157Z,90.24
2023-03-20T05:19:55.517Z,89.25
2023-03-20T05:22:21.935Z,89.29
2023-03-20T05:24:48.348Z,90.63
2023-03-20T05:27:14.746Z,90.78
2023-03-20T05:29:41.129Z,90.54
2023-03-20T05:32:07.580Z,90.48
2023-03-20T05:34:34.069Z,89.81
2023-03-20T05:37:00.459Z,89.97
2023-03-20T05:39:26.944Z,90.01
2023-03-20T05:41:53.462Z,89.27
2023-03-20T05:44:19.877Z,89.74
2023-03-20T05:46:46.333Z,89.46
2023-03-20T05:49:12.747Z,88.87
2023-03-20T05:51:39.135Z,89.27
2023-03-20T05:54:05.779Z,89.62
2023-03-20T05:56:32.212Z,89.88
2023-03-20T05:58:58.674Z,89.89
2023-03-20T06:01:25.185Z,89.30
2023-03-20T06:03:51.683Z,89.68
2023-03-20T06:06:18.159Z,89.06
2023-03-20T06:08:44.590Z,88.03
2023-03-20T06:11:11.671Z,88.64
2023-03-20T06:13:38.054Z,89.12
2023-03-20T06:16:05.080Z,87.90
2023-03-20T06:18:31.567Z,87.61
2023-03-20T06:20:58.179Z,88.72
2023-03-20T06:23:25.126Z,89.09
2023-03-20T06:25:51.685Z,88.84
2023-03-20T06:28:18.093Z,89.48
2023-03-20T06:30:44.799Z,87.86
2023-03-20T06:33:11.376Z,88.37
2023-03-20T06:35:38.551Z,88.03
2023-03-20T06:38:05.183Z,87.95
2023-03-20T06:40:31.821Z,88.47
2023-03-20T06:42:58.280Z,88.55
2023-03-20T06:45:24.774Z,89.58
2023-03-20T06:47:51.171Z,87.71
2023-03-20T06:50:17.687Z,89.02
2023-03-20T06:52:44.752Z,87.58
2023-03-20T06:55:11.428Z,89.33
2023-03-20T06:57:38.866Z,89.09
2023-03-20T07:00:06.421Z,89.17
2023-03-20T07:02:33.369Z,88.39
2023-03-20T07:04:59.885Z,89.47
2023-03-20T07:07:26.348Z,88.85
2023-03-20T07:09:52.752Z,88.12
2023-03-20T07:12:20.243Z,87.67
2023-03-20T07:14:46.836Z,88.71
2023-03-20T07:17:13.549Z,87.82
2023-03-20T07:19:40.139Z,87.35
2023-03-20T07:22:11.919Z,86.50
2023-03-20T07:24:38.459Z,87.37
2023-03-20T07:27:04.939Z,87.66
2023-03-20T07:29:31.341Z,89.09
2023-03-20T07:31:57.887Z,87.61
2023-03-20T07:34:24.297Z,88.29
2023-03-20T07:36:51.679Z,87.76
2023-03-20T07:39:18.088Z,87.14
2023-03-20T07:41:44.502Z,87.67
2023-03-20T07:44:11.036Z,88.61
2023-03-20T07:46:37.495Z,88.36
2023-03-20T07:49:03.893Z,86.75
2023-03-20T07:51:30.435Z,87.82
2023-03-20T07:53:56.860Z,88.05
2023-03-20T07:56:23.228Z,85.56
2023-03-20T07:58:49.646Z,86.78
2023-03-20T08:01:16.171Z,86.54
2023-03-20T08:03:42.693Z,86.32
2023-03-20T08:06:09.762Z,87.01
2023-03-20T08:08:36.493Z,84.80
2023-03-20T08:11:02.892Z,85.19
2023-03-20T08:13:29.367Z,83.25
2023-03-20T08:15:55.765Z,83.74
2023-03-20T08:18:22.435Z,83.21
2023-03-20T08:20:50.199Z,83.59
2023-03-20T08:23:20.434Z,83.95
2023-03-20T08:25:48.682Z,83.25
2023-03-20T08:28:15.580Z,82.29
2023-03-20T08:30:42.055Z,82.04
2023-03-20T08:33:08.774Z,81.86
2023-03-20T08:35:35.699Z,81.80
2023-03-20T08:38:02.922Z,81.65
2023-03-20T08:40:29.655Z,81.13
2023-03-20T08:42:56.339Z,80.74
2023-03-20T08:45:25.840Z,79.91
2023-03-20T08:47:52.727Z,80.75
2023-03-20T08:50:19.389Z,79.15
2023-03-20T08:52:46.969Z,79.90
2023-03-20T08:55:14.927Z,78.85
2023-03-20T08:57:41.478Z,79.53
2023-03-20T09:00:09.891Z,79.39
2023-03-20T09:02:37.388Z,79.13
2023-03-20T09:05:04.576Z,78.79
2023-03-20T09:07:31.077Z,79.05
2023-03-20T09:09:57.540Z,78.41
2023-03-20T09:12:24.226Z,76.20
2023-03-20T09:14:50.640Z,75.79
2023-03-20T09:17:17.129Z,75.76
2023-03-20T09:19:44.670Z,74.87
2023-03-20T09:22:15.216Z,73.50
2023-03-20T09:24:41.771Z,73.64
2023-03-20T09:27:08.457Z,73.26
2023-03-20T09:29:34.876Z,72.58
2023-03-20T09:32:02.021Z,73.36
2023-03-20T09:34:29.379Z,72.04
2023-03-20T09:36:56.055Z,72.33
2023-03-20T09:39:22.584Z,72.11
2023-03-20T09:41:57.190Z,70.38
2023-03-20T09:44:40.275Z,71.95
2023-03-20T09:47:21.693Z,71.15
2023-03-20T09:49:48.186Z,70.25
2023-03-20T09:53:11.392Z,70.66
2023-03-20T09:55:41.456Z,70.80
2023-03-20T09:58:35.740Z,71.35
2023-03-20T10:01:05.530Z,71.25
2023-03-20T10:03:50.529Z,70.84
2023-03-20T10:06:18.373Z,70.78
2023-03-20T10:08:46.400Z,70.06
2023-03-20T10:11:51.058Z,70.67
2023-03-20T10:14:28.013Z,70.08
2023-03-20T10:17:26.384Z,70.12
2023-03-20T10:20:02.764Z,70.42
2023-03-20T10:22:38.377Z,70.41
2023-03-20T10:25:21.255Z,71.33
2023-03-20T10:28:13.061Z,70.43
2023-03-20T10:31:13.548Z,70.49
2023-03-20T10:34:17.609Z,70.09
2023-03-20T10:36:53.627Z,70.64
2023-03-20T10:39:50.225Z,69.72
2023-03-20T10:42:23.625Z,70.40
2023-03-20T10:45:02.017Z,70.84
2023-03-20T10:47:33.436Z,70.67
2023-03-20T10:50:17.272Z,70.86
2023-03-20T10:52:46.228Z,71.39
2023-03-20T10:55:20.760Z,70.93
2023-03-20T10:58:03.387Z,71.36
2023-03-20T11:00:29.960Z,71.11
2023-03-20T11:02:56.539Z,71.00
2023-03-20T11:05:30.174Z,70.12
2023-03-20T11:08:08.896Z,71.26
2023-03-20T11:10:38.245Z,71.11
2023-03-20T11:13:26.525Z,71.50
2023-03-20T11:15:54.294Z,71.24
2023-03-20T11:18:24.686Z,70.60
2023-03-20T11:20:56.557Z,70.90
2023-03-20T11:23:33.150Z,70.30
2023-03-20T11:26:02.908Z,70.95
2023-03-20T11:28:40.886Z,71.26
2023-03-20T11:31:13.605Z,70.26
2023-03-20T11:33:44.325Z,72.02
2023-03-20T11:36:33.156Z,71.43
2023-03-20T11:39:16.516Z,72.22
2023-03-20T11:41:50.409Z,73.27
2023-03-20T11:44:36.759Z,72.06
2023-03-20T11:47:04.756Z,73.31
2023-03-20T11:49:52.774Z,74.02
2023-03-20T11:52:25.638Z,73.35
2023-03-20T11:54:56.237Z,73.79
2023-03-20T11:57:42.641Z,74.55
2023-03-20T12:00:11.915Z,74.51
2023-03-20T12:02:41.303Z,75.03
2023-03-20T12:05:32.799Z,75.49
2023-03-20T12:08:10.253Z,76.16
2023-03-20T12:10:42.367Z,76.77
2023-03-20T12:13:23.456Z,77.91
2023-03-20T12:15:55.566Z,77.29
2023-03-20T12:18:33.325Z,75.80
2023-03-20T12:21:14.701Z,76.66
2023-03-20T12:23:45.746Z,76.84
2023-03-20T12:26:15.148Z,76.69
2023-03-20T12:28:47.355Z,75.67
2023-03-20T12:31:41.601Z,75.05
2023-03-20T12:34:27.921Z,75.68
2023-03-20T12:36:57.491Z,74.99
2023-03-20T12:39:34.798Z,74.65
2023-03-20T12:42:22.317Z,73.72
2023-03-20T12:44:53.450Z,73.89
2023-03-20T12:47:41.060Z,74.63
2023-03-20T12:50:33.909Z,73.40
2023-03-20T12:53:12.451Z,72.86
2023-03-20T12:56:04.298Z,72.33
2023-03-20T12:58:51.643Z,70.49
2023-03-20T13:01:37.807Z,71.21
2023-03-20T13:04:23.037Z,71.07
2023-03-20T13:06:55.847Z,71.36
2023-03-20T13:09:44.663Z,71.40
2023-03-20T13:12:14.452Z,70.79
2023-03-20T13:15:16.093Z,70.93
2023-03-20T13:17:48.382Z,69.81
2023-03-20T13:20:27.143Z,69.97
2023-03-20T13:23:15.657Z,68.82
2023-03-20T13:26:23.576Z,69.58
2023-03-20T13:29:15.307Z,69.25
2023-03-20T13:32:06.328Z,69.09
2023-03-20T13:34:52.918Z,69.32
2023-03-20T13:37:28.307Z,69.22
2023-03-20T13:40:05.945Z,69.01
2023-03-20T13:42:50.336Z,69.72
2023-03-20T13:45:31.395Z,69.77
2023-03-20T13:48:02.307Z,69.74
2023-03-20T13:51:02.218Z,69.35
2023-03-20T13:53:33.697Z,68.47
2023-03-20T13:56:22.026Z,68.53
2023-03-20T13:59:10.219Z,68.83
2023-03-20T14:02:02.544Z,69.01
2023-03-20T14:04:30.532Z,69.51
2023-03-20T14:06:59.310Z,68.98
2023-03-20T14:09:27.435Z,68.87
2023-03-20T14:11:56.471Z,68.44
2023-03-20T14:14:41.186Z,69.35
2023-03-20T14:17:16.785Z,69.19
2023-03-20T14:19:43.770Z,69.27
2023-03-20T14:22:21.456Z,70.17
2023-03-20T14:24:54.962Z,69.34
2023-03-20T14:27:36.873Z,70.81
2023-03-20T14:30:42.700Z,69.87
2023-03-20T14:33:15.414Z,70.21
2023-03-20T14:35:49.327Z,70.44
2023-03-20T14:38:26.428Z,70.63
2023-03-20T14:40:59.221Z,70.17
2023-03-20T14:43:47.522Z,70.61
2023-03-20T14:46:26.193Z,70.56
2023-03-20T14:48:56.427Z,70.84
2023-03-20T14:51:22.771Z,69.91
2023-03-20T14:53:57.708Z,70.70
2023-03-20T14:56:32.097Z,69.80
2023-03-20T14:59:02.831Z,70.02
2023-03-20T15:01:38.448Z,69.09
2023-03-20T15:04:37.509Z,69.40
2023-03-20T15:07:17.779Z,69.94
2023-03-20T15:09:47.438Z,70.37
2023-03-20T15:12:19.468Z,70.22
2023-03-20T15:14:52.574Z,70.07
2023-03-20T15:17:23.812Z,69.87
2023-03-20T15:19:50.942Z,68.98
2023-03-20T15:22:19.852Z,69.90
2023-03-20T15:24:55.709Z,68.90
2023-03-20T15:27:25.816Z,69.33
2023-03-20T15:29:55.524Z,70.03
2023-03-20T15:32:22.404Z,69.05
2023-03-20T15:34:51.011Z,70.52
2023-03-20T15:37:21.821Z,69.70
2023-03-20T15:39:51.778Z,70.15
2023-03-20T15:42:21.460Z,69.71
2023-03-20T15:44:50.345Z,70.14
2023-03-20T15:47:22.433Z,69.82
2023-03-20T15:49:52.322Z,68.67
2023-03-20T15:52:53.942Z,69.25
2023-03-20T15:55:23.483Z,69.79
2023-03-20T15:57:53.942Z,69.65
2023-03-20T16:00:30.474Z,68.27
2023-03-20T16:02:59.015Z,68.58
2023-03-20T16:05:28.920Z,69.47
2023-03-20T16:07:56.294Z,69.30
2023-03-20T16:10:38.146Z,69.23
2023-03-20T16:13:07.265Z,69.19
2023-03-20T16:15:34.440Z,68.65
2023-03-20T16:18:04.559Z,69.91
2023-03-20T16:20:36.798Z,68.82
2023-03-20T16:23:07.284Z,70.04
2023-03-20T16:25:35.442Z,68.91
2023-03-20T16:28:07.049Z,68.84
2023-03-20T16:30:34.980Z,68.58
2023-03-20T16:33:06.700Z,68.06
2023-03-20T16:35:47.413Z,69.88
2023-03-20T16:38:24.036Z,69.92
2023-03-20T16:41:01.032Z,68.56
2023-03-20T16:43:31.339Z,69.90
2023-03-20T16:46:04.606Z,69.73
2023-03-20T16:48:37.830Z,68.98
2023-03-20T16:51:24.555Z,69.29
2023-03-20T16:53:56.447Z,69.38
2023-03-20T16:56:38.323Z,68.96
2023-03-20T16:59:09.072Z,70.16
2023-03-20T17:01:35.651Z,71.00
2023-03-20T17:04:33.652Z,70.74
2023-03-20T17:07:07.356Z,70.23
2023-03-20T17:09:34.111Z,70.57
2023-03-20T17:12:13.180Z,69.63
2023-03-20T17:14:45.066Z,71.44
2023-03-20T17:17:19.439Z,70.78
2023-03-20T17:19:46.955Z,71.57
2023-03-20T17:22:15.854Z,71.39
2023-03-20T17:24:42.385Z,70.82
2023-03-20T17:27:12.188Z,71.14
2023-03-20T17:29:39.746Z,71.17
2023-03-20T17:32:15.323Z,72.93
2023-03-20T17:34:42.833Z,73.18
2023-03-20T17:37:22.724Z,73.55
2023-03-20T17:39:49.346Z,72.42
2023-03-20T17:42:20.790Z,73.76
2023-03-20T17:44:48.187Z,72.77
2023-03-20T17:47:19.953Z,73.24
2023-03-20T17:49:46.497Z,73.24
2023-03-20T17:52:18.946Z,73.51
2023-03-20T17:54:46.446Z,72.26
2023-03-20T17:57:32.643Z,72.41
2023-03-20T18:00:00.097Z,72.19
2023-03-20T18:02:26.835Z,73.61
2023-03-20T18:04:53.486Z,73.40
2023-03-20T18:07:20.385Z,72.29
2023-03-20T18:09:48.856Z,73.18
2023-03-20T18:12:17.498Z,72.51
2023-03-20T18:14:45.620Z,72.24
2023-03-20T18:17:13.856Z,73.93
2023-03-20T18:19:41.694Z,73.59
2023-03-20T18:22:09.342Z,74.12
2023-03-20T18:24:36.523Z,73.48
2023-03-20T18:27:03.106Z,73.12
2023-03-20T18:29:29.590Z,74.96
2023-03-20T18:31:56.005Z,74.05
2023-03-20T18:34:22.578Z,74.39
2023-03-20T18:36:49.353Z,74.74
2023-03-20T18:39:21.723Z,74.61
2023-03-20T18:41:48.979Z,75.94
2023-03-20T18:44:15.789Z,73.86
2023-03-20T18:46:43.357Z,74.33
2023-03-20T18:49:14.687Z,75.98
2023-03-20T18:51:41.190Z,75.56
2023-03-20T18:54:07.855Z,74.30
2023-03-20T18:56:36.831Z,75.44
2023-03-20T18:59:07.750Z,75.16
2023-03-20T19:01:36.114Z,75.27
2023-03-20T19:04:03.175Z,76.56
2023-03-20T19:06:32.089Z,76.32
2023-03-20T19:08:59.390Z,75.04
2023-03-20T19:11:25.900Z,75.78
2023-03-20T19:13:53.693Z,77.02
2023-03-20T19:16:20.304Z,75.03
2023-03-20T19:18:47.144Z,75.50
2023-03-20T19:21:14.006Z,76.67
2023-03-20T19:23:40.555Z,75.99
2023-03-20T19:26:15.873Z,75.60
2023-03-20T19:28:44.088Z,75.88
2023-03-20T19:31:11.236Z,78.25
2023-03-20T19:33:38.671Z,77.56
2023-03-20T19:36:06.718Z,75.80
2023-03-20T19:38:34.244Z,77.16
2023-03-20T19:41:02.556Z,77.76
2023-03-20T19:43:30.803Z,76.67
2023-03-20T19:45:59.314Z,76.98
2023-03-20T19:48:46.218Z,78.16
2023-03-20T19:51:26.877Z,78.04
2023-03-20T19:53:54.535Z,77.55
2023-03-20T19:56:22.664Z,77.56
2023-03-20T19:58:49.947Z,78.35
2023-03-20T20:01:19.431Z,78.94
2023-03-20T20:03:46.699Z,77.24
2023-03-20T20:06:33.432Z,78.23
2023-03-20T20:09:01.677Z,78.78
2023-03-20T20:11:28.663Z,79.20
2023-03-20T20:14:06.708Z,77.62
2023-03-20T20:16:39.800Z,77.91
2023-03-20T20:19:06.732Z,78.20
2023-03-20T20:24:21.594Z,78.66
2023-03-20T20:26:54.967Z,77.40
2023-03-20T20:29:28.025Z,77.79
2023-03-20T20:31:54.558Z,77.99
2023-03-20T20:35:22.602Z,79.25
2023-03-20T20:37:51.755Z,78.57
2023-03-20T20:39:56.903Z,78.38
2023-03-20T20:42:23.499Z,78.48
2023-03-20T20:44:50.304Z,78.23
2023-03-20T20:47:17.147Z,77.75
2023-03-20T20:49:46.466Z,77.79
2023-03-20T20:52:13.690Z,77.41
2023-03-20T20:54:43.241Z,78.49
2023-03-20T20:57:11.632Z,78.17
2023-03-20T20:59:40.263Z,77.23
2023-03-20T21:02:12.592Z,77.60
2023-03-20T21:04:43.417Z,76.99
2023-03-20T21:07:12.857Z,77.46
2023-03-20T21:09:40.824Z,76.95
2023-03-20T21:12:08.518Z,77.72
2023-03-20T21:14:35.199Z,76.72
2023-03-20T21:17:01.796Z,75.76
2023-03-20T21:19:37.718Z,76.78
2023-03-20T21:22:05.190Z,76.91
2023-03-20T21:24:35.104Z,77.81
2023-03-20T21:27:08.120Z,77.34
2023-03-20T21:29:34.861Z,77.67
2023-03-20T21:32:01.419Z,77.09
2023-03-20T21:34:29.063Z,76.82
2023-03-20T21:36:57.814Z,76.95
2023-03-20T21:39:26.019Z,76.44
2023-03-20T21:41:52.452Z,75.87
2023-03-20T21:44:46.114Z,77.25
2023-03-20T21:51:23.450Z,76.85
2023-03-20T21:53:12.436Z,76.71
2023-03-20T22:01:42.025Z,75.86
2023-03-20T22:10:05.712Z,76.64
2023-03-20T22:12:59.451Z,75.34
2023-03-20T22:15:39.372Z,76.44
2023-03-20T22:18:14.852Z,75.78
2023-03-20T22:21:29.710Z,76.02
2023-03-20T22:24:01.698Z,75.13
2023-03-20T22:29:32.438Z,72.37
2023-03-20T22:35:04.328Z,72.49
2023-03-20T22:38:17.127Z,72.96
2023-03-20T22:40:59.288Z,72.21
2023-03-20T22:42:57.392Z,72.49
2023-03-20T22:45:37.866Z,72.32
2023-03-20T22:48:10.835Z,71.90
2023-03-20T22:50:38.640Z,73.98
2023-03-20T22:53:05.381Z,73.57
2023-03-20T22:55:32.090Z,72.64
2023-03-20T22:58:06.956Z,73.35
2023-03-20T23:00:35.489Z,74.72
2023-03-20T23:03:33.383Z,73.90
2023-03-20T23:05:48.582Z,74.78
2023-03-20T23:08:15.061Z,74.05
2023-03-20T23:10:48.637Z,73.54
2023-03-20T23:13:17.052Z,73.55
2023-03-20T23:15:46.661Z,74.62
2023-03-20T23:18:14.768Z,74.51
2023-03-20T23:20:41.562Z,73.75
2023-03-20T23:23:08.266Z,73.30
2023-03-20T23:25:41.833Z,74.01
2023-03-20T23:28:09.661Z,74.02
2023-03-20T23:30:49.811Z,73.60
2023-03-20T23:33:23.320Z,73.21
2023-03-20T23:35:58.480Z,73.70
2023-03-20T23:38:31.481Z,73.81
2023-03-20T23:40:57.962Z,74.00
2023-03-20T23:43:25.358Z,75.19
2023-03-20T23:45:51.944Z,74.69
2023-03-20T23:48:18.603Z,74.23
2023-03-20T23:50:53.081Z,74.21
2023-03-20T23:53:21.239Z,74.85
2023-03-20T23:55:52.957Z,74.36
2023-03-20T23:58:21.536Z,74.81
